Time,TemperatureF,DewpointF,PressureIn,WindDirection,WindDirectionDegrees,WindSpeedMPH,WindSpeedGustMPH,Humidity,HourlyPrecipIn,Conditions,Clouds,dailyrainin,SoftwareType,DateUTC
2014-02-24 02:00:00,81.0,75.0,30.03,South,180,17.0,-999.0,84,-99.99,,,-99.99,,2014-02-24 02:00:00,
2014-02-24 02:42:00,81.0,75.0,30.03,South,180,17.0,-999.0,84,-99.99,,,-99.99,,2014-02-24 02:42:00,
2014-02-24 02:52:00,81.0,75.0,30.03,South,180,17.0,-999.0,84,-99.99,,,-99.99,,2014-02-24 02:52:00,
2014-02-24 03:00:00,77.0,72.0,30.05,SSE,160,11.0,-999.0,83,-99.99,,,-99.99,,2014-02-24 03:00:00,
2014-02-24 03:43:00,77.0,72.0,30.05,SSE,160,11.0,-999.0,83,-99.99,,,-99.99,,2014-02-24 03:43:00,
2014-02-24 03:53:00,77.0,72.0,30.05,SSE,160,11.0,-999.0,83,-99.99,,,-99.99,,2014-02-24 03:53:00,
2014-02-24 04:00:00,77.0,72.0,30.06,SSE,160,11.0,-999.0,83,-99.99,,,-99.99,,2014-02-24 04:00:00,
2014-02-24 04:43:00,77.0,72.0,30.06,SSE,160,11.0,-999.0,83,-99.99,,,-99.99,,2014-02-24 04:43:00,
2014-02-24 04:53:00,77.0,72.0,30.06,SSE,160,11.0,-999.0,83,-99.99,,,-99.99,,2014-02-24 04:53:00,
2014-02-24 05:00:00,75.0,70.0,30.06,SSE,150,9.0,-999.0,83,-99.99,,,-99.99,,2014-02-24 05:00:00,
2014-02-24 05:22:00,75.0,70.0,30.06,SSE,150,9.0,-999.0,83,-99.99,,,-99.99,,2014-02-24 05:22:00,
2014-02-24 05:33:00,75.0,70.0,30.06,SSE,150,9.0,-999.0,83,-99.99,,,-99.99,,2014-02-24 05:33:00,
2014-02-24 05:43:00,75.0,70.0,30.06,SSE,150,9.0,-999.0,83,-99.99,,,-99.99,,2014-02-24 05:43:00,
2014-02-24 05:53:00,75.0,70.0,30.06,SSE,150,9.0,-999.0,83,-99.99,,,-99.99,,2014-02-24 05:53:00,
2014-02-24 06:00:00,73.0,68.0,30.06,SSE,160,17.0,-999.0,82,-99.99,,,-99.99,,2014-02-24 06:00:00,
2014-02-24 06:42:00,73.0,68.0,30.06,SSE,160,17.0,-999.0,82,-99.99,,,-99.99,,2014-02-24 06:42:00,
2014-02-24 06:52:00,73.0,68.0,30.06,SSE,160,17.0,-999.0,82,-99.99,,,-99.99,,2014-02-24 06:52:00,
2014-02-24 07:00:00,75.0,70.0,30.06,SSE,160,17.0,-999.0,83,-99.99,,,-99.99,,2014-02-24 07:00:00,
2014-02-24 07:21:00,75.0,70.0,30.06,SSE,160,17.0,-999.0,83,-99.99,,,-99.99,,2014-02-24 07:21:00,
2014-02-24 07:32:00,75.0,70.0,30.06,SSE,160,17.0,-999.0,83,-99.99,,,-99.99,,2014-02-24 07:32:00,
2014-02-24 07:42:00,75.0,70.0,30.06,SSE,160,17.0,-999.0,83,-99.99,,,-99.99,,2014-02-24 07:42:00,
2014-02-24 07:52:00,75.0,70.0,30.06,SSE,160,17.0,-999.0,83,-99.99,,,-99.99,,2014-02-24 07:52:00,
2014-02-24 08:00:00,73.0,71.0,30.05,SE,130,17.0,-999.0,91,-99.99,,,-99.99,,2014-02-24 08:00:00,
2014-02-24 08:42:00,73.0,71.0,30.05,SE,130,17.0,-999.0,91,-99.99,,,-99.99,,2014-02-24 08:42:00,
2014-02-24 08:52:00,73.0,71.0,30.05,SE,130,17.0,-999.0,91,-99.99,,,-99.99,,2014-02-24 08:52:00,
2014-02-24 14:00:00,76.0,73.0,30.09,East,90,9.0,-999.0,91,-99.99,,,-99.99,,2014-02-24 14:00:00,
2014-02-24 14:42:00,76.0,73.0,30.09,East,90,9.0,-999.0,91,-99.99,,,-99.99,,2014-02-24 14:42:00,
2014-02-24 14:52:00,76.0,73.0,30.09,East,90,9.0,-999.0,91,-99.99,,,-99.99,,2014-02-24 14:52:00,
2014-02-24 16:00:00,78.0,73.0,30.09,East,100,7.0,-999.0,84,-99.99,,,-99.99,,2014-02-24 16:00:00,
2014-02-24 16:42:00,78.0,73.0,30.09,East,100,7.0,-999.0,84,-99.99,,,-99.99,,2014-02-24 16:42:00,
2014-02-24 16:53:00,78.0,73.0,30.09,East,100,7.0,-999.0,84,-99.99,,,-99.99,,2014-02-24 16:53:00,
2014-02-24 17:00:00,77.0,70.0,30.09,East,100,2.0,-999.0,79,-99.99,,,-99.99,,2014-02-24 17:00:00,
2014-02-24 17:43:00,77.0,70.0,30.09,East,100,2.0,-999.0,79,-99.99,,,-99.99,,2014-02-24 17:43:00,
2014-02-24 17:52:00,77.0,70.0,30.09,East,100,2.0,-999.0,79,-99.99,,,-99.99,,2014-02-24 17:52:00,
2014-02-24 19:00:00,82.0,69.0,30.04,North,360,2.0,-999.0,63,-99.99,,,-99.99,,2014-02-24 19:00:00,
2014-02-24 19:42:00,82.0,69.0,30.04,North,360,2.0,-999.0,63,-99.99,,,-99.99,,2014-02-24 19:42:00,
2014-02-24 19:52:00,82.0,69.0,30.04,North,360,2.0,-999.0,63,-99.99,,,-99.99,,2014-02-24 19:52:00,
2014-02-24 20:21:00,82.0,69.0,30.01,North,360,6.0,-999.0,63,-99.99,,,-99.99,,2014-02-24 20:21:00,
2014-02-24 20:32:00,82.0,69.0,30.01,North,360,6.0,-999.0,63,-99.99,,,-99.99,,2014-02-24 20:32:00,
2014-02-24 20:42:00,82.0,69.0,30.01,North,360,6.0,-999.0,63,-99.99,,,-99.99,,2014-02-24 20:42:00,
2014-02-24 23:00:00,77.0,66.0,30.02,North,10,17.0,-999.0,68,-99.99,,,-99.99,,2014-02-24 23:00:00,
2014-02-24 23:42:00,77.0,66.0,30.02,North,10,17.0,-999.0,68,-99.99,,,-99.99,,2014-02-24 23:42:00,
2014-02-24 23:52:00,77.0,66.0,30.02,North,10,17.0,-999.0,68,-99.99,,,-99.99,,2014-02-24 23:52:00,